Time;durP1;ratioP1;P1;durP2;ratioP2;P2;SDS_P1;SDS_P2;PMS_P1;PMS_P2;Temp;Humidity;BMP_temperature;BMP_pressure;BME280_temperature;BME280_humidity;BME280_pressure;Samples;Min_cycle;Max_cycle;Signal;HPM_P1;HPM_P2
2021/05/16 00:01:19;;;;;;;9.15;8.30;;;;;;;12.28;83.54;98525.78;1787556;79;20914;-54
2021/05/16 00:03:48;;;;;;;10.90;9.90;;;;;;;12.34;83.13;98517.80;1790510;79;21976;-55
2021/05/16 00:06:14;;;;;;;10.15;9.30;;;;;;;12.37;82.47;98518.73;1815104;77;20933;-54
2021/05/16 00:08:42;;;;;;;10.95;9.85;;;;;;;12.32;81.84;98522.52;1787994;78;20953;-54
2021/05/16 00:11:09;;;;;;;9.98;8.98;;;;;;;12.30;81.78;98525.09;1824937;77;21078;-55
2021/05/16 00:13:37;;;;;;;10.10;9.15;;;;;;;12.31;81.91;98523.54;1754719;80;20993;-57
2021/05/16 00:16:05;;;;;;;9.45;8.73;;;;;;;12.32;81.82;98523.86;1822910;77;21488;-56
2021/05/16 00:18:32;;;;;;;10.18;9.18;;;;;;;12.34;81.90;98522.31;1828105;77;20874;-55
2021/05/16 00:20:58;;;;;;;9.88;9.08;;;;;;;12.37;82.03;98528.06;1828218;77;20933;-54
2021/05/16 00:23:24;;;;;;;10.53;9.48;;;;;;;12.41;82.15;98519.12;1821342;77;21683;-54
2021/05/16 00:25:52;;;;;;;9.48;8.58;;;;;;;12.43;82.16;98519.77;1749804;80;20890;-54
2021/05/16 00:28:19;;;;;;;10.65;9.70;;;;;;;12.46;82.17;98529.20;1751763;79;21613;-53
2021/05/16 00:30:45;;;;;;;10.65;9.70;;;;;;;12.47;82.14;98519.64;1753080;80;21021;-55
2021/05/16 00:33:12;;;;;;;9.98;9.08;;;;;;;12.50;82.09;98525.08;1763962;79;21021;-55
2021/05/16 00:35:40;;;;;;;10.03;9.23;;;;;;;12.52;82.01;98524.36;1809803;77;21774;-55
2021/05/16 00:38:07;;;;;;;9.80;9.00;;;;;;;12.48;81.68;98523.97;1822051;77;20993;-55
2021/05/16 00:40:34;;;;;;;10.08;9.15;;;;;;;12.45;81.28;98522.21;1801224;77;20980;-54
2021/05/16 00:43:02;;;;;;;11.35;10.25;;;;;;;12.38;81.13;98515.02;1818826;77;21617;-54
2021/05/16 00:45:29;;;;;;;11.38;10.30;;;;;;;12.33;81.24;98520.69;1813332;77;21558;-55
2021/05/16 00:48:02;;;;;;;10.20;9.40;;;;;;;12.27;81.54;98518.31;1806522;77;20968;-55
2021/05/16 00:50:41;;;;;;;10.03;9.13;;;;;;;12.23;81.76;98521.57;1817651;77;21494;-55
2021/05/16 00:53:08;;;;;;;11.60;10.50;;;;;;;12.18;82.28;98522.19;1835669;77;20935;-56
2021/05/16 00:55:35;;;;;;;11.53;10.53;;;;;;;12.14;82.58;98528.97;1821239;77;20992;-56
2021/05/16 00:58:03;;;;;;;11.20;10.28;;;;;;;12.12;82.96;98530.98;1786791;79;20956;-55
2021/05/16 01:00:35;;;;;;;11.43;10.23;;;;;;;12.13;83.23;98527.31;1804319;79;21049;-57
2021/05/16 01:03:04;;;;;;;11.90;10.55;;;;;;;12.13;83.05;98529.98;1795373;79;21562;-56
2021/05/16 01:05:31;;;;;;;10.75;9.85;;;;;;;12.11;83.20;98525.88;1778632;79;20909;-58
2021/05/16 01:07:58;;;;;;;11.05;9.95;;;;;;;12.07;83.13;98530.78;1776995;79;21566;-55
2021/05/16 01:10:24;;;;;;;10.72;9.73;;;;;;;12.02;83.29;98522.57;1765102;79;20976;-54
2021/05/16 01:12:54;;;;;;;11.55;10.50;;;;;;;12.00;83.46;98516.63;1788258;79;21280;-55
2021/05/16 01:15:26;;;;;;;11.57;10.68;;;;;;;11.98;83.75;98524.02;1754547;79;21454;-56
2021/05/16 01:17:55;;;;;;;11.73;10.80;;;;;;;12.00;84.42;98520.63;1776133;79;21062;-55
2021/05/16 01:20:28;;;;;;;11.03;10.08;;;;;;;12.05;84.60;98514.67;1768622;79;20952;-56
2021/05/16 01:23:08;;;;;;;12.85;11.05;;;;;;;12.09;84.60;98507.94;1755283;79;21050;-55
2021/05/16 01:25:40;;;;;;;11.53;10.32;;;;;;;12.10;84.58;98509.05;1778170;79;21039;-56
2021/05/16 01:28:07;;;;;;;11.18;10.18;;;;;;;12.10;84.24;98509.05;1792967;79;20980;-55
2021/05/16 01:30:34;;;;;;;12.07;11.08;;;;;;;12.07;84.06;98507.33;1789275;79;20984;-55
2021/05/16 01:33:03;;;;;;;11.35;10.28;;;;;;;12.03;84.04;98510.07;1743112;81;21008;-56
2021/05/16 01:35:30;;;;;;;10.95;9.95;;;;;;;11.98;83.93;98509.35;1736295;82;20968;-56
2021/05/16 01:37:57;;;;;;;11.97;10.98;;;;;;;11.92;84.12;98509.33;1734891;82;21077;-55
2021/05/16 01:40:24;;;;;;;15.08;10.55;;;;;;;11.86;84.43;98508.31;1695098;83;21063;-57
2021/05/16 01:42:55;;;;;;;12.37;11.28;;;;;;;11.85;84.66;98507.16;1721252;82;21614;-54
2021/05/16 01:45:27;;;;;;;12.25;11.20;;;;;;;11.82;84.76;98496.91;1721500;82;20975;-55
2021/05/16 01:47:56;;;;;;;11.57;10.63;;;;;;;11.73;85.20;98497.08;1723413;82;21601;-56
2021/05/16 01:50:27;;;;;;;11.15;10.15;;;;;;;11.63;85.72;98493.13;1721366;82;21793;-55
2021/05/16 01:52:55;;;;;;;12.33;11.33;;;;;;;11.52;86.52;98495.06;1735673;82;20920;-56
2021/05/16 01:55:22;;;;;;;12.85;11.70;;;;;;;11.47;87.23;98489.52;1721731;82;21581;-54
2021/05/16 01:57:49;;;;;;;12.58;11.38;;;;;;;11.44;87.68;98486.73;1722303;82;21593;-55
2021/05/16 02:00:37;;;;;;;13.25;12.15;;;;;;;11.44;88.05;98493.91;1722886;82;21613;-55
2021/05/16 02:03:04;;;;;;;12.47;11.45;;;;;;;11.43;88.05;98494.91;1708460;82;21012;-54
2021/05/16 02:05:34;;;;;;;13.43;12.23;;;;;;;11.43;88.29;98492.25;1739085;82;20968;-54
2021/05/16 02:08:03;;;;;;;13.00;11.90;;;;;;;11.36;88.31;98488.24;1761701;79;20892;-54
2021/05/16 02:10:30;;;;;;;12.90;11.83;;;;;;;11.31;88.46;98486.69;1749957;80;20933;-55
2021/05/16 02:12:58;;;;;;;12.73;11.63;;;;;;;11.28;88.63;98480.93;1746780;80;20933;-54
2021/05/16 02:15:25;;;;;;;12.18;11.18;;;;;;;11.24;88.66;98482.36;1815533;78;21058;-55
2021/05/16 02:17:55;;;;;;;12.15;10.98;;;;;;;11.23;88.84;98483.36;1763894;80;20977;-56
2021/05/16 02:20:21;;;;;;;12.73;11.65;;;;;;;11.22;89.06;98487.03;1784827;78;20956;-55
2021/05/16 02:22:48;;;;;;;12.55;11.45;;;;;;;11.16;88.88;98488.64;1756902;80;21103;-55
2021/05/16 02:25:16;;;;;;;13.50;11.85;;;;;;;11.14;88.69;98488.86;1771896;80;21587;-56
2021/05/16 02:27:47;;;;;;;12.82;11.73;;;;;;;11.14;88.55;98493.35;1775901;78;21029;-56
2021/05/16 02:30:16;;;;;;;13.95;12.55;;;;;;;11.17;88.42;98487.64;1773772;80;21515;-54
2021/05/16 02:32:42;;;;;;;13.72;12.15;;;;;;;11.18;88.24;98485.80;1764922;79;20884;-58
2021/05/16 02:35:11;;;;;;;13.80;12.60;;;;;;;11.18;88.38;98483.44;1767495;79;21525;-57
2021/05/16 02:37:40;;;;;;;14.75;13.35;;;;;;;11.20;88.96;98485.92;1762653;80;21535;-56
2021/05/16 02:40:08;;;;;;;14.68;13.38;;;;;;;11.24;89.47;98479.70;1767545;80;21089;-55
2021/05/16 02:42:35;;;;;;;14.60;13.32;;;;;;;11.27;89.80;98483.27;1776415;78;21017;-56
2021/05/16 02:45:02;;;;;;;14.80;13.38;;;;;;;11.33;89.85;98478.48;1757624;80;20928;-55
2021/05/16 02:47:29;;;;;;;15.43;14.10;;;;;;;11.37;89.36;98479.72;1748067;80;20972;-55
2021/05/16 02:49:56;;;;;;;15.63;13.93;;;;;;;11.38;89.39;98484.04;1777476;79;20937;-55
2021/05/16 02:52:22;;;;;;;15.40;13.35;;;;;;;11.42;89.53;98482.63;1749291;80;21130;-54
2021/05/16 02:54:49;;;;;;;14.58;13.35;;;;;;;11.42;89.34;98488.76;1777189;79;21581;-55
2021/05/16 02:57:16;;;;;;;14.05;12.65;;;;;;;11.42;89.37;98491.42;1770820;79;21522;-56
2021/05/16 02:59:44;;;;;;;12.60;11.40;;;;;;;11.51;89.32;98490.74;1760273;81;21001;-55
2021/05/16 03:02:12;;;;;;;15.05;13.75;;;;;;;11.61;89.00;98494.67;1758191;79;20989;-54
2021/05/16 03:04:39;;;;;;;15.80;14.40;;;;;;;11.72;89.46;98498.63;1746249;81;21137;-55
2021/05/16 03:07:06;;;;;;;15.70;14.23;;;;;;;11.87;89.61;98496.61;1766304;79;20989;-54
2021/05/16 03:09:34;;;;;;;16.50;14.90;;;;;;;12.08;89.51;98502.28;1747739;80;20996;-54
2021/05/16 03:12:03;;;;;;;15.78;14.38;;;;;;;12.28;88.63;98498.61;1785776;78;20988;-55
2021/05/16 03:14:30;;;;;;;15.30;13.98;;;;;;;12.49;88.17;98499.45;1767547;79;21015;-55
2021/05/16 03:16:58;;;;;;;15.95;14.45;;;;;;;12.66;87.26;98487.32;1785682;78;21084;-55
2021/05/16 03:19:26;;;;;;;15.63;14.23;;;;;;;12.91;86.51;98490.96;1755758;81;20968;-57
2021/05/16 03:21:53;;;;;;;14.45;13.03;;;;;;;13.17;85.37;98486.09;1769702;80;21026;-56
2021/05/16 03:24:20;;;;;;;15.13;13.60;;;;;;;13.47;84.90;98481.88;1802470;78;21518;-55
2021/05/16 03:26:46;;;;;;;15.20;13.60;;;;;;;13.94;83.20;98489.95;1719718;80;21027;-55
2021/05/16 03:29:13;;;;;;;14.00;12.88;;;;;;;14.27;80.53;98489.72;1790247;78;20965;-56
2021/05/16 03:31:39;;;;;;;14.58;13.28;;;;;;;14.54;79.43;98490.67;1773049;79;20906;-57
2021/05/16 03:34:07;;;;;;;16.20;14.18;;;;;;;14.88;76.76;98487.98;1760674;78;20917;-56
2021/05/16 03:36:35;;;;;;;15.48;14.15;;;;;;;15.08;74.92;98490.45;1761790;79;21049;-56
2021/05/16 03:39:02;;;;;;;16.25;14.75;;;;;;;15.11;74.54;98483.31;1784952;80;20927;-57
2021/05/16 03:41:29;;;;;;;15.00;13.70;;;;;;;15.20;73.90;98487.34;1786263;78;21077;-55
2021/05/16 03:43:55;;;;;;;14.78;12.80;;;;;;;15.41;73.65;98486.34;1778814;80;21525;-55
2021/05/16 03:46:22;;;;;;;14.70;13.40;;;;;;;15.71;73.40;98490.44;1782808;80;20901;-55
2021/05/16 03:48:49;;;;;;;15.13;13.70;;;;;;;16.30;71.98;98490.08;1768858;80;21598;-55
2021/05/16 03:51:15;;;;;;;16.45;14.90;;;;;;;16.73;69.60;98490.66;1779603;78;21078;-56
2021/05/16 03:53:42;;;;;;;15.45;14.03;;;;;;;16.95;67.95;98482.28;1771963;79;21631;-55
2021/05/16 03:56:09;;;;;;;15.03;13.75;;;;;;;16.95;67.62;98477.43;1777179;80;20923;-56
2021/05/16 03:58:36;;;;;;;16.40;15.00;;;;;;;17.05;67.56;98464.25;1768692;78;20959;-56
2021/05/16 04:01:04;;;;;;;14.70;13.50;;;;;;;17.02;66.95;98457.47;1757272;81;21501;-55
2021/05/16 04:03:30;;;;;;;15.20;13.80;;;;;;;17.07;67.21;98464.82;1757199;79;21036;-56
2021/05/16 04:05:57;;;;;;;15.72;14.43;;;;;;;17.23;66.86;98470.27;1789086;78;21837;-55
2021/05/16 04:08:23;;;;;;;14.33;13.15;;;;;;;17.59;66.25;98464.31;1796369;79;20937;-55
2021/05/16 04:10:50;;;;;;;13.70;12.45;;;;;;;18.15;65.38;98462.92;1809104;79;21344;-55
2021/05/16 04:13:16;;;;;;;14.87;13.48;;;;;;;18.70;64.17;98498.59;1813782;79;21012;-55
2021/05/16 04:15:42;;;;;;;14.28;13.15;;;;;;;18.93;62.71;98512.70;1808610;79;21566;-56
2021/05/16 04:18:09;;;;;;;13.43;12.30;;;;;;;18.91;62.10;98508.09;1761679;79;21024;-58
2021/05/16 04:20:36;;;;;;;14.60;13.30;;;;;;;18.75;61.98;98501.36;1792114;79;21511;-55
2021/05/16 04:23:02;;;;;;;17.20;15.60;;;;;;;18.89;62.03;98501.31;1790758;79;20854;-55
2021/05/16 04:25:29;;;;;;;15.48;13.95;;;;;;;18.95;60.56;98498.44;1802667;79;21561;-57
2021/05/16 04:27:56;;;;;;;15.40;14.10;;;;;;;18.84;61.52;98501.24;1811248;79;20949;-55
2021/05/16 04:30:23;;;;;;;13.93;12.73;;;;;;;19.28;60.77;98494.05;1810681;79;21027;-57
2021/05/16 04:32:49;;;;;;;15.23;13.80;;;;;;;19.76;60.04;98494.69;1813815;79;20846;-57
2021/05/16 04:35:15;;;;;;;14.83;13.55;;;;;;;20.36;57.92;98489.94;1813839;79;21541;-56
2021/05/16 04:37:42;;;;;;;15.53;14.13;;;;;;;20.82;56.38;98489.75;1788073;79;21475;-57
2021/05/16 04:40:09;;;;;;;13.78;12.68;;;;;;;21.50;54.30;98486.12;1787343;79;20949;-57
2021/05/16 04:42:35;;;;;;;13.22;12.13;;;;;;;21.50;54.30;98486.12;1808874;78;21081;-52
2021/05/16 04:45:04;;;;;;;15.08;13.83;;;;;;;21.96;53.34;98478.44;1804788;79;20984;-54
2021/05/16 04:47:30;;;;;;;14.15;13.03;;;;;;;22.69;51.26;98472.30;1788624;79;21048;-55
2021/05/16 04:49:56;;;;;;;13.75;12.65;;;;;;;22.95;50.67;98474.42;1798591;79;21044;-53
2021/05/16 04:52:23;;;;;;;13.80;12.73;;;;;;;23.24;49.59;98478.98;1792716;79;21087;-55
2021/05/16 04:54:50;;;;;;;13.22;12.23;;;;;;;23.44;48.81;98470.55;1785748;79;21937;-57
2021/05/16 04:57:16;;;;;;;14.18;13.08;;;;;;;23.87;48.38;98465.72;1783178;79;21023;-60
2021/05/16 04:59:48;;;;;;;12.73;11.73;;;;;;;24.02;46.77;98469.69;1789179;79;20901;-56
2021/05/16 05:02:12;;;;;;;12.58;11.40;;;;;;;24.32;46.24;98465.46;1807592;77;20893;-59
2021/05/16 05:04:38;;;;;;;12.63;11.63;;;;;;;24.92;45.17;98460.61;1793307;77;20996;-55
2021/05/16 05:07:06;;;;;;;11.68;10.78;;;;;;;25.60;43.86;98457.15;1793643;77;21058;-61
2021/05/16 05:09:36;;;;;;;12.28;11.38;;;;;;;25.92;42.42;98455.88;1785102;78;20930;-55
2021/05/16 05:12:05;;;;;;;11.95;10.82;;;;;;;26.44;40.74;98448.60;1794109;78;20993;-60
2021/05/16 05:14:32;;;;;;;11.38;10.53;;;;;;;26.46;40.47;98447.20;1801056;78;20980;-59
2021/05/16 05:16:58;;;;;;;10.50;9.70;;;;;;;26.71;40.33;98448.67;1804959;78;21025;-57
2021/05/16 05:19:25;;;;;;;9.48;8.68;;;;;;;26.95;39.30;98441.17;1780803;78;21155;-56
2021/05/16 05:21:52;;;;;;;10.45;9.65;;;;;;;26.90;38.81;98441.27;1785519;79;21048;-56
2021/05/16 05:24:18;;;;;;;9.28;8.58;;;;;;;26.52;38.62;98435.08;1775016;79;21044;-57
2021/05/16 05:26:45;;;;;;;9.85;9.08;;;;;;;25.93;39.85;98441.16;1780895;79;21087;-55
2021/05/16 05:29:12;;;;;;;9.15;8.45;;;;;;;25.45;40.40;98434.95;1778713;79;21004;-57
2021/05/16 05:31:38;;;;;;;8.63;7.92;;;;;;;24.91;41.71;98433.14;1785816;78;21789;-56
2021/05/16 05:34:05;;;;;;;8.55;7.85;;;;;;;24.73;42.66;98433.83;1784027;79;21597;-56
2021/05/16 05:36:31;;;;;;;8.00;7.40;;;;;;;24.99;42.25;98430.61;1775452;79;21087;-54
2021/05/16 05:38:58;;;;;;;7.47;6.87;;;;;;;24.87;41.82;98430.74;1776318;79;21064;-54
2021/05/16 05:41:25;;;;;;;6.95;6.42;;;;;;;24.52;41.83;98428.59;1774073;79;21043;-55
2021/05/16 05:43:51;;;;;;;7.53;7.03;;;;;;;23.93;43.33;98434.16;1778717;79;21609;-55
2021/05/16 05:46:18;;;;;;;7.70;7.17;;;;;;;23.86;44.03;98439.64;1780379;79;21001;-55
2021/05/16 05:48:44;;;;;;;7.37;6.72;;;;;;;23.96;43.90;98429.52;1776120;79;20941;-55
2021/05/16 05:51:11;;;;;;;6.85;6.25;;;;;;;23.88;44.57;98430.69;1774455;79;21012;-56
2021/05/16 05:53:40;;;;;;;7.92;7.42;;;;;;;23.76;44.92;98436.98;1776328;79;21057;-57
2021/05/16 05:56:07;;;;;;;7.67;7.08;;;;;;;23.62;44.63;98438.14;1778785;79;21690;-56
2021/05/16 05:58:35;;;;;;;8.85;8.05;;;;;;;23.34;44.98;98433.35;1774727;79;21044;-56
2021/05/16 06:01:03;;;;;;;8.25;7.45;;;;;;;23.11;46.05;98438.87;1776136;79;20901;-58
2021/05/16 06:03:30;;;;;;;8.73;8.03;;;;;;;23.04;46.74;98454.63;1775504;79;20940;-55
2021/05/16 06:05:58;;;;;;;9.25;8.55;;;;;;;23.26;46.39;98443.42;1775862;79;20917;-57
2021/05/16 06:08:27;;;;;;;9.85;9.15;;;;;;;23.03;46.37;98450.28;1784289;79;21691;-56
2021/05/16 06:10:53;;;;;;;9.23;8.43;;;;;;;22.84;47.15;98439.73;1784980;79;20999;-61
2021/05/16 06:13:19;;;;;;;7.80;7.20;;;;;;;22.78;48.13;98450.34;1784271;79;20925;-57
2021/05/16 06:15:46;;;;;;;9.00;8.30;;;;;;;23.25;47.79;98449.95;1786681;79;21098;-58
2021/05/16 06:18:12;;;;;;;8.78;8.10;;;;;;;23.49;46.72;98438.74;1782026;79;20849;-55
2021/05/16 06:20:39;;;;;;;9.83;9.10;;;;;;;23.59;47.08;98452.83;1780870;79;21076;-57
2021/05/16 06:23:08;;;;;;;11.30;10.35;;;;;;;23.56;46.58;98452.03;1781895;79;21039;-57
2021/05/16 06:25:34;;;;;;;11.53;10.38;;;;;;;23.20;46.70;98454.83;1781286;79;20842;-58
2021/05/16 06:28:00;;;;;;;11.18;10.28;;;;;;;22.89;47.96;98452.49;1785106;79;21573;-55
2021/05/16 06:30:27;;;;;;;10.58;9.78;;;;;;;22.62;48.98;98456.83;1787150;79;21020;-56
2021/05/16 06:32:53;;;;;;;9.43;8.65;;;;;;;22.33;49.02;98448.97;1788740;79;20997;-57
2021/05/16 06:35:20;;;;;;;11.10;10.25;;;;;;;22.28;49.97;98455.73;1781821;78;20960;-54
2021/05/16 06:37:48;;;;;;;11.45;10.55;;;;;;;22.26;49.26;98446.54;1787831;77;20961;-57
2021/05/16 06:40:15;;;;;;;10.93;10.13;;;;;;;22.04;50.49;98452.73;1791307;77;21458;-58
2021/05/16 06:42:42;;;;;;;11.00;10.10;;;;;;;22.18;50.43;98443.01;1791534;79;21024;-60
2021/05/16 06:45:10;;;;;;;12.60;11.60;;;;;;;22.15;50.29;98439.48;1782298;77;21063;-63
2021/05/16 06:47:37;;;;;;;13.58;12.50;;;;;;;21.92;50.15;98437.28;1792761;77;20988;-58
2021/05/16 06:50:08;;;;;;;13.78;12.78;;;;;;;21.58;50.81;98437.44;1805494;79;21009;-56
2021/05/16 06:52:35;;;;;;;12.18;11.22;;;;;;;21.26;52.13;98436.23;1783825;79;21015;-64
2021/05/16 06:55:03;;;;;;;13.08;11.97;;;;;;;21.24;52.76;98443.80;1782117;79;20968;-60
2021/05/16 06:57:31;;;;;;;10.95;10.05;;;;;;;21.31;52.96;98434.36;1781706;79;21002;-62
2021/05/16 06:59:57;;;;;;;10.30;9.58;;;;;;;21.36;53.35;98438.97;1783493;79;21601;-59
2021/05/16 07:02:23;;;;;;;11.45;10.50;;;;;;;21.46;51.52;98437.66;1784157;79;21281;-62
2021/05/16 07:04:50;;;;;;;8.13;7.42;;;;;;;21.47;51.51;98432.53;1781527;79;21525;-66
2021/05/16 07:07:16;;;;;;;7.05;6.42;;;;;;;21.58;49.60;98431.48;1802080;78;20908;-63
2021/05/16 07:09:44;;;;;;;7.25;6.72;;;;;;;21.77;48.72;98428.55;1812994;78;21076;-65
2021/05/16 07:12:11;;;;;;;6.92;6.33;;;;;;;22.04;48.97;98429.17;1816743;78;20928;-63
2021/05/16 07:14:39;;;;;;;5.85;5.45;;;;;;;22.13;47.88;98429.47;1756638;81;21457;-64
2021/05/16 07:17:06;;;;;;;5.58;5.17;;;;;;;22.07;47.83;98425.94;1759520;79;21000;-66
2021/05/16 07:19:34;;;;;;;6.30;5.70;;;;;;;22.10;45.90;98423.23;1780806;78;21044;-65
2021/05/16 07:22:00;;;;;;;6.60;6.00;;;;;;;22.06;45.84;98418.06;1841684;77;21046;-62
2021/05/16 07:24:27;;;;;;;5.10;4.70;;;;;;;21.93;47.26;98429.42;1802188;77;20969;-65
2021/05/16 07:26:53;;;;;;;5.83;5.28;;;;;;;22.05;46.53;98438.94;1805172;77;20932;-62
2021/05/16 07:29:20;;;;;;;7.50;6.80;;;;;;;22.65;45.61;98422.44;1798937;77;21028;-67
2021/05/16 07:31:47;;;;;;;7.05;6.42;;;;;;;22.75;44.82;98422.41;1796095;77;20976;-65
2021/05/16 07:34:14;;;;;;;6.90;6.37;;;;;;;22.93;44.82;98427.80;1814758;77;21105;-66
2021/05/16 07:36:40;;;;;;;6.20;5.78;;;;;;;23.07;44.25;98420.15;1797051;77;21608;-64
2021/05/16 07:39:07;;;;;;;6.42;5.83;;;;;;;23.10;43.78;98423.67;1827259;77;20979;-64
2021/05/16 07:41:33;;;;;;;6.28;5.78;;;;;;;23.12;42.26;98422.87;1799534;77;20988;-64
2021/05/16 07:44:00;;;;;;;7.03;5.35;;;;;;;23.16;41.87;98421.22;1826921;77;20974;-68
2021/05/16 07:46:26;;;;;;;6.37;5.10;;;;;;;23.15;42.88;98428.29;1856802;77;21067;-65
2021/05/16 07:48:53;;;;;;;4.60;4.20;;;;;;;23.42;41.51;98419.78;1777977;80;20992;-63
2021/05/16 07:51:21;;;;;;;4.47;4.10;;;;;;;23.45;40.95;98399.69;1790374;79;20902;-64
2021/05/16 07:53:49;;;;;;;5.30;4.78;;;;;;;23.77;40.75;98412.83;1757949;80;20979;-67
2021/05/16 07:56:15;;;;;;;4.25;3.95;;;;;;;24.07;39.75;98397.67;1758701;80;20985;-63
2021/05/16 07:58:43;;;;;;;5.28;4.87;;;;;;;24.28;38.90;98414.11;1772182;78;39851;-67
2021/05/16 08:01:09;;;;;;;5.20;4.90;;;;;;;24.20;39.21;98409.28;1765796;79;21621;-63
2021/05/16 08:03:35;;;;;;;5.50;5.10;;;;;;;24.25;40.13;98396.19;1803954;78;20991;-62
2021/05/16 08:06:02;;;;;;;5.53;5.03;;;;;;;24.38;40.36;98396.36;1796466;78;21168;-62
2021/05/16 08:08:29;;;;;;;5.67;5.20;;;;;;;24.39;39.72;98398.53;1801487;77;20993;-63
2021/05/16 08:10:56;;;;;;;5.40;5.00;;;;;;;24.33;40.12;98401.84;1798133;79;21691;-64
2021/05/16 08:13:22;;;;;;;6.17;5.58;;;;;;;24.23;40.52;98403.83;1772856;79;20980;-63
2021/05/16 08:15:49;;;;;;;4.62;4.28;;;;;;;24.20;40.29;98392.98;1779527;78;21047;-62
2021/05/16 08:18:16;;;;;;;7.17;5.33;;;;;;;24.19;39.64;98397.35;1774664;79;21073;-66
2021/05/16 08:20:42;;;;;;;5.90;5.40;;;;;;;24.11;40.93;98393.34;1737107;82;21031;-65
2021/05/16 08:23:09;;;;;;;5.58;5.08;;;;;;;24.05;40.60;98387.64;1734840;81;21169;-64
2021/05/16 08:25:36;;;;;;;4.47;4.12;;;;;;;24.09;41.44;98392.00;1743848;79;21010;-62
2021/05/16 08:28:03;;;;;;;5.42;4.97;;;;;;;24.03;39.88;98409.39;1762632;80;21006;-64
2021/05/16 08:30:29;;;;;;;5.80;5.35;;;;;;;23.84;40.89;98399.20;1751508;80;21473;-64
2021/05/16 08:32:56;;;;;;;6.28;4.50;;;;;;;23.65;41.81;98389.25;1759721;80;21087;-65
2021/05/16 08:35:23;;;;;;;3.77;3.47;;;;;;;23.77;40.17;98388.38;1744966;80;21685;-64
2021/05/16 08:37:49;;;;;;;3.42;3.22;;;;;;;23.87;41.51;98389.13;1758421;80;21022;-63
2021/05/16 08:40:16;;;;;;;4.12;3.60;;;;;;;24.13;39.39;98387.61;1739136;80;21015;-66
2021/05/16 08:42:43;;;;;;;4.10;3.80;;;;;;;24.09;40.43;98383.28;1748787;80;21536;-66
2021/05/16 08:45:13;;;;;;;4.22;3.92;;;;;;;24.32;40.34;98393.98;1754883;80;20964;-57
2021/05/16 08:47:43;;;;;;;6.05;5.55;;;;;;;24.64;39.93;98384.69;1742380;80;21073;-64
2021/05/16 08:50:13;;;;;;;5.50;4.92;;;;;;;24.26;39.76;98390.49;1749821;80;20989;-66
2021/05/16 08:52:40;;;;;;;4.28;3.87;;;;;;;23.84;40.86;98392.41;1748946;81;20994;-69
2021/05/16 08:55:08;;;;;;;4.05;3.65;;;;;;;23.45;41.55;98391.55;1741225;81;21640;-66
2021/05/16 08:57:35;;;;;;;4.10;3.80;;;;;;;23.07;41.94;98381.39;1746501;81;20987;-69
2021/05/16 09:00:18;;;;;;;4.85;4.47;;;;;;;22.85;43.24;98378.19;1753248;80;21074;-58
2021/05/16 09:03:10;;;;;;;4.70;4.37;;;;;;;22.54;43.20;98373.36;1753902;80;21478;-62
2021/05/16 09:05:50;;;;;;;3.90;3.42;;;;;;;22.26;44.34;98373.94;1732032;82;21076;-60
2021/05/16 09:08:22;;;;;;;3.45;3.15;;;;;;;22.20;44.37;98375.02;1738578;80;21018;-58
2021/05/16 09:10:59;;;;;;;3.62;3.33;;;;;;;22.22;45.30;98367.42;1748228;80;21072;-62
2021/05/16 09:13:33;;;;;;;2.90;2.70;;;;;;;22.35;43.70;98361.45;1754887;80;21024;-59
2021/05/16 09:16:16;;;;;;;3.87;3.00;;;;;;;22.58;43.72;98362.22;1741735;80;21147;-63
2021/05/16 09:18:50;;;;;;;3.80;2.98;;;;;;;22.94;42.68;98365.16;1750687;79;21057;-64
2021/05/16 09:21:33;;;;;;;2.90;2.70;;;;;;;23.13;41.22;98367.52;1726850;82;21436;-63
2021/05/16 09:24:06;;;;;;;4.00;2.37;;;;;;;23.31;41.84;98356.03;1746664;79;21482;-62
2021/05/16 09:26:39;;;;;;;3.65;2.90;;;;;;;23.60;40.17;98343.95;1744444;81;21026;-61
2021/05/16 09:29:27;;;;;;;2.65;2.08;;;;;;;23.65;40.78;98354.78;1740383;81;20990;-54
2021/05/16 09:31:54;;;;;;;2.47;2.27;;;;;;;23.41;39.69;98353.05;1767182;80;20926;-56
2021/05/16 09:34:20;;;;;;;2.30;2.20;;;;;;;23.28;41.31;98353.88;1757469;79;21477;-60
2021/05/16 09:36:47;;;;;;;3.08;2.70;;;;;;;23.45;41.88;98331.03;1739746;81;21045;-61
2021/05/16 09:39:25;;;;;;;2.58;2.40;;;;;;;23.61;40.09;98359.16;1758358;79;21096;-62
2021/05/16 09:42:03;;;;;;;3.35;2.58;;;;;;;23.64;40.00;98335.53;1740620;81;20910;-60
2021/05/16 09:44:48;;;;;;;2.75;2.27;;;;;;;23.68;39.79;98328.97;1720487;81;20925;-62
2021/05/16 09:47:20;;;;;;;2.02;1.80;;;;;;;23.63;41.10;98331.19;1786365;77;20878;-60
2021/05/16 09:49:49;;;;;;;1.80;1.70;;;;;;;23.75;40.09;98328.91;1796068;78;21614;-56
2021/05/16 09:52:32;;;;;;;2.45;1.52;;;;;;;23.79;39.04;98318.31;1801372;78;22166;-58
2021/05/16 09:55:06;;;;;;;1.70;1.60;;;;;;;23.83;39.55;98319.35;1805268;78;21013;-60
2021/05/16 09:57:41;;;;;;;1.82;1.50;;;;;;;23.90;39.33;98317.14;1796997;78;21015;-58
2021/05/16 10:00:13;;;;;;;2.17;1.72;;;;;;;24.07;38.74;98337.09;1794358;79;21002;-57
2021/05/16 10:02:39;;;;;;;2.45;1.60;;;;;;;24.02;39.41;98319.47;1779062;79;20948;-59
2021/05/16 10:05:09;;;;;;;1.32;1.22;;;;;;;23.86;39.97;98318.25;1798881;78;21681;-60
2021/05/16 10:07:37;;;;;;;1.50;1.40;;;;;;;23.88;39.49;98325.55;1789370;78;20953;-60
2021/05/16 10:10:07;;;;;;;5.55;1.75;;;;;;;23.82;40.06;98310.95;1781487;77;21056;-64
2021/05/16 10:12:35;;;;;;;1.40;1.30;;;;;;;23.75;39.63;98303.13;1781493;77;21645;-60
2021/05/16 10:15:10;;;;;;;1.72;1.15;;;;;;;23.76;40.24;98307.47;1768857;79;21557;-62
2021/05/16 10:17:37;;;;;;;1.27;1.17;;;;;;;23.90;39.82;98292.70;1785863;79;21062;-61
2021/05/16 10:20:11;;;;;;;2.72;1.15;;;;;;;24.05;40.56;98291.20;1791772;79;21012;-63
2021/05/16 10:22:39;;;;;;;2.47;1.10;;;;;;;24.15;39.76;98298.47;1784489;79;21076;-64
2021/05/16 10:25:08;;;;;;;1.12;1.00;;;;;;;24.29;39.53;98300.80;1783870;79;20953;-62
2021/05/16 10:27:43;;;;;;;1.40;0.93;;;;;;;24.39;39.18;98296.06;1785051;79;22329;-64
2021/05/16 10:30:12;;;;;;;2.47;0.93;;;;;;;24.54;38.00;98290.46;1802338;78;21556;-61
2021/05/16 10:32:50;;;;;;;1.27;0.82;;;;;;;24.71;38.39;98280.49;1784152;79;20937;-61
2021/05/16 10:35:17;;;;;;;2.60;0.90;;;;;;;24.77;38.23;98284.75;1800483;77;20925;-63
2021/05/16 10:37:51;;;;;;;1.00;0.85;;;;;;;24.68;38.26;98270.19;1783729;79;21012;-62
2021/05/16 10:40:27;;;;;;;1.12;0.70;;;;;;;24.36;37.84;98273.53;1791979;79;21533;-60
2021/05/16 10:43:02;;;;;;;2.83;0.90;;;;;;;24.05;39.48;98269.47;1791297;77;21078;-63
2021/05/16 10:45:38;;;;;;;1.12;0.88;;;;;;;23.98;39.47;98256.78;1800508;77;20965;-60
2021/05/16 10:48:16;;;;;;;0.60;0.60;;;;;;;23.89;38.91;98258.48;1802680;79;21533;-60
2021/05/16 10:50:58;;;;;;;4.40;1.15;;;;;;;23.86;39.75;98253.07;1781442;77;21031;-64
2021/05/16 10:53:41;;;;;;;0.65;0.65;;;;;;;23.91;39.40;98241.34;1787216;79;21080;-60
2021/05/16 10:56:14;;;;;;;1.50;0.90;;;;;;;23.88;39.59;98235.94;1783710;79;21746;-61
2021/05/16 10:58:43;;;;;;;2.05;0.80;;;;;;;23.98;39.54;98239.13;1781628;79;21510;-65
2021/05/16 11:01:16;;;;;;;1.67;0.80;;;;;;;24.22;38.48;98231.05;1779884;79;20903;-62
2021/05/16 11:03:57;;;;;;;0.98;0.88;;;;;;;24.32;38.35;98226.84;1812494;79;21001;-62
2021/05/16 11:06:38;;;;;;;1.30;0.78;;;;;;;24.36;37.98;98220.54;1808848;79;21528;-65
2021/05/16 11:09:06;;;;;;;0.65;0.50;;;;;;;24.26;38.41;98219.30;1779780;79;21094;-64
2021/05/16 11:11:43;;;;;;;0.60;0.60;;;;;;;24.16;39.29;98209.91;1708474;82;20949;-62
2021/05/16 11:14:25;;;;;;;2.67;0.80;;;;;;;24.08;38.14;98202.89;1731988;79;20993;-64
2021/05/16 11:17:01;;;;;;;1.00;0.65;;;;;;;23.92;38.37;98200.34;1723616;81;20964;-63
2021/05/16 11:19:30;;;;;;;2.42;0.88;;;;;;;23.71;38.59;98202.16;1738913;81;21019;-65
2021/05/16 11:21:57;;;;;;;5.22;0.90;;;;;;;23.49;39.71;98204.55;1762790;81;21008;-66
2021/05/16 11:24:35;;;;;;;1.07;0.65;;;;;;;23.33;40.25;98199.18;1749216;81;20956;-63
2021/05/16 11:27:01;;;;;;;3.95;0.50;;;;;;;23.26;40.26;98194.63;1759100;80;21008;-63
2021/05/16 11:29:27;;;;;;;1.77;0.78;;;;;;;23.13;40.26;98193.91;1741090;80;20944;-61
2021/05/16 11:32:04;;;;;;;2.42;0.70;;;;;;;22.99;40.63;98203.78;1757329;79;20945;-61
2021/05/16 11:34:31;;;;;;;2.10;0.78;;;;;;;22.79;41.70;98223.42;1742149;80;21107;-57